עמוד ראשי
METAR-TAF:

METAR-TAF

שדות תעופה :

Fuerteventura, ספרד

קו רוחב: 28-27N, קו אורך: 013-52W, גובה: 22מטר

תצפית מזג אוויר נוכחית

הדו"ח נערך לפני 28דקות, בשעה 23:00 UTC
רוח 17קשר מכיוון צפון
טמפרטורת 21 צלסיוס
לחות 73%
לחץ 1020 hPa
ראות 10 קילומטר או יותר
עננים פזורים בגובה 2200רגל

METAR: GCFV 262300Z AUTO 01017KT 9999 SCT022 21/16 Q1020

זמן: 00:28 (23:28 UTC)

תחזית

הדו"ח נערך לפני 3 שעות ו 28דקות, בשעה 20:00 UTC
תחזית בתוקף מ 26 ב 21 UTC עד 27 ב 21 UTC
רוח 15קשר מכיוון צפון
ראות 10 קילומטר או יותר
מעט עננים בגובה 3000רגל
הסתברות 30% :
זמנית מ -
26 ב 22 UTC עד 27 ב 09 UTC
עננים בינוניים בגובה 1400רגל

TAF: GCFV 262000Z 2621/2721 36015KT 9999 FEW030 TX25/2714Z TN19/2706Z PROB30 TEMPO 2622/2709 BKN014

תצפיות ותחזיות מזג אוויר לגבי יותר מ- 4,000 שדות תעופה ברחבי העולם. דוחות METAR ו- TAF.

התחנות הזמינות מסומנות בנקודות צהובות ואדומות על גבי המפה.

העבר את העכבר לנקודה הצבעונית על מנת לראות את שם התחנה.

לאחר מכן, לחץ כדי לראות את תוכן ואת תחזיות מזג האוויר.

כדי לשנות את המפה: לחץ על הכפתורים הירוקים עם הפלוס השחור כדי להתקרב; על הכפתור הירוק עם המקף כדי להתרחק; או בחיצים הירוקים למפות סמוכות.


METAR-TAF: